Huvudsida
METAR-TAF:

METAR-TAF

Flygplatser :

Milano-Linate flygplats

Milano, Italien

latitud: 45-26N, longitud: 009-17E, höjd: 107 m

Aktuellt väderrapport

Denna rapport gjordes för 26 minuter sedan, klockan 19:20 UTC
Vind 2 kt varierande vindriktning
Temperatur 8°C
Fuktighet 34%
Tryck 1019 hPa
Sikt 10 km eller mer
Inga moln under 1 500 m eller inga cumulonimbus

METAR: LIML 281920Z VRB02KT CAVOK 08/M07 Q1019 NOSIG

Tid: 20:46 (19:46 UTC)

Väderprognos

Denna rapport gjordes för 2 timmar och 46 minuter sedan, klockan 17:00 UTC
Prognos gäller från 28 kl. 18 UTC till 29 kl. 18 UTC
Vind 5 kt från nord
Sikt 10 km eller mer
Inga moln under 1 500 m eller inga cumulonimbus
Blir
från 29 kl. 12 UTC till 29 kl. 16 UTC
Brutna moln på en höjd av 3000 ft
regn

TAF: LIML 281700Z 2818/2918 35005KT CAVOK BECMG 2912/2916 RA BKN030

Aktuella väderrapporter och prognoser från 4000 flygplatser (METAR- och TAF-rapporter).

De tillgängliga stationerna syns som gula och röda prickar på kartan.

För musen över prickarna för att se namnen på stationerna.

Klicka sedan för att få väderrapporter och prognoser.

För att ändra kartan: Klicka på de gröna knapparna med ett svart kors på för att zooma in; den gröna knappen med ett streck på för att zooma ut; eller på de gröna pilarna för angränsande kartor.


METAR-TAF: